Westport, California
Current Conditions -  °F | °C
As of 7:56 AM on Thursday 27 Nov 2014 (Local Time) from KUKI Reporting Station
Haze Haze  
Wind Chill: 41°   Ceiling: Unl
Heat Index: 41°   Visibility: 6mi
Dew Point: 38°   Wind: 0mph
Humidity: 89%   Direction: NA
Pressure: 30.2"   Gusts: NA
Location:  39.64°N, 123.79°W
Report Text: KUKI 271556Z AUTO 00000KT 6SM BR CLR 05/03 A3020 RMK AO2 SLP226 T00500033
Loading
Personal Weather Stations






























Interactive Weather Map New forecast layout! Learn more

10-Day Weather Forecast

Advertisements
Track Severe Weather on mobile